createdAt,value
2023-02-02T00:00:25.492Z,6.78
2023-02-02T00:02:51.909Z,6.77
2023-02-02T00:05:18.397Z,6.76
2023-02-02T00:07:44.847Z,6.72
2023-02-02T00:10:11.276Z,6.69
2023-02-02T00:12:37.694Z,6.68
2023-02-02T00:15:04.376Z,6.67
2023-02-02T00:17:30.882Z,6.66
2023-02-02T00:19:57.401Z,6.67
2023-02-02T00:22:23.941Z,6.67
2023-02-02T00:24:50.413Z,6.66
2023-02-02T00:27:16.874Z,6.66
2023-02-02T00:29:43.520Z,6.66
2023-02-02T00:32:10.176Z,6.64
2023-02-02T00:34:36.885Z,6.63
2023-02-02T00:37:03.502Z,6.62
2023-02-02T00:39:30.107Z,6.62
2023-02-02T00:41:56.665Z,6.60
2023-02-02T00:44:41.831Z,6.61
2023-02-02T00:47:08.316Z,6.63
2023-02-02T00:49:34.732Z,6.65
2023-02-02T00:52:01.123Z,6.67
2023-02-02T00:54:28.571Z,6.70
2023-02-02T00:56:55.029Z,6.69
2023-02-02T00:59:21.671Z,6.70
2023-02-02T01:01:48.244Z,6.72
2023-02-02T01:04:14.847Z,6.69
2023-02-02T01:06:42.240Z,6.67
2023-02-02T01:09:08.974Z,6.66
2023-02-02T01:11:35.422Z,6.65
2023-02-02T01:14:01.984Z,6.62
2023-02-02T01:16:28.897Z,6.59
2023-02-02T01:18:55.604Z,6.58
2023-02-02T01:21:22.848Z,6.55
2023-02-02T01:23:49.529Z,6.53
2023-02-02T01:26:16.400Z,6.49
2023-02-02T01:28:43.189Z,6.46
2023-02-02T01:31:15.433Z,6.44
2023-02-02T01:33:43.705Z,6.42
2023-02-02T01:36:13.497Z,6.42
2023-02-02T01:38:40.273Z,6.40
2023-02-02T01:41:07.294Z,6.38
2023-02-02T01:43:45.493Z,6.38
2023-02-02T01:46:14.063Z,6.37
2023-02-02T01:48:43.864Z,6.36
2023-02-02T01:51:16.461Z,6.37
2023-02-02T01:53:44.913Z,6.36
2023-02-02T01:56:15.492Z,6.36
2023-02-02T01:58:43.412Z,6.41
2023-02-02T02:01:09.910Z,6.42
2023-02-02T02:03:37.570Z,6.43
2023-02-02T02:06:17.231Z,6.42
2023-02-02T02:08:52.243Z,6.44
2023-02-02T02:11:22.751Z,6.44
2023-02-02T02:14:09.871Z,6.43
2023-02-02T02:17:03.350Z,6.40
2023-02-02T02:20:11.658Z,6.39
2023-02-02T02:23:23.959Z,6.38
2023-02-02T02:26:35.185Z,6.36
2023-02-02T02:29:35.687Z,6.35
2023-02-02T02:32:12.335Z,6.35
2023-02-02T02:35:11.978Z,6.31
2023-02-02T02:37:59.313Z,6.30
2023-02-02T02:40:45.485Z,6.28
2023-02-02T02:43:51.286Z,6.27
2023-02-02T02:46:17.817Z,6.25
2023-02-02T02:48:45.367Z,6.25
2023-02-02T02:51:36.872Z,6.24
2023-02-02T02:54:03.926Z,6.21
2023-02-02T02:56:41.719Z,6.21
2023-02-02T02:59:23.037Z,6.20
2023-02-02T03:02:05.669Z,6.22
2023-02-02T03:04:44.404Z,6.27
2023-02-02T03:07:22.971Z,6.30
2023-02-02T03:09:51.338Z,6.33
2023-02-02T03:12:18.273Z,6.35
2023-02-02T03:14:44.693Z,6.38
2023-02-02T03:17:11.261Z,6.39
2023-02-02T03:19:37.857Z,6.39
2023-02-02T03:22:04.467Z,6.37
2023-02-02T03:24:30.893Z,6.37
2023-02-02T03:26:57.573Z,6.36
2023-02-02T03:29:24.081Z,6.36
2023-02-02T03:31:50.831Z,6.37
2023-02-02T03:34:17.319Z,6.36
2023-02-02T03:36:43.778Z,6.37
2023-02-02T03:39:10.376Z,6.37
2023-02-02T03:41:36.952Z,6.38
2023-02-02T03:44:03.492Z,6.39
2023-02-02T03:46:30.035Z,6.40
2023-02-02T03:48:56.457Z,6.41
2023-02-02T03:51:22.880Z,6.40
2023-02-02T03:53:49.297Z,6.39
2023-02-02T03:56:16.403Z,6.39
2023-02-02T03:58:42.806Z,6.39
2023-02-02T04:01:13.337Z,6.41
2023-02-02T04:03:39.758Z,6.42
2023-02-02T04:06:06.296Z,6.43
2023-02-02T04:08:34.068Z,6.45
2023-02-02T04:11:00.653Z,6.51
2023-02-02T04:13:27.141Z,6.55
2023-02-02T04:16:00.486Z,6.58
2023-02-02T04:18:27.447Z,6.64
2023-02-02T04:21:01.036Z,6.65
2023-02-02T04:23:28.571Z,6.65
2023-02-02T04:25:55.354Z,6.65
2023-02-02T04:28:23.921Z,6.66
2023-02-02T04:30:51.523Z,6.66
2023-02-02T04:33:18.493Z,6.66
2023-02-02T04:35:45.619Z,6.65
2023-02-02T04:38:12.698Z,6.65
2023-02-02T04:40:40.687Z,6.65
2023-02-02T04:43:07.216Z,6.62
2023-02-02T04:45:34.607Z,6.67
2023-02-02T04:48:01.141Z,6.65
2023-02-02T04:50:27.561Z,6.67
2023-02-02T04:53:00.008Z,6.66
2023-02-02T04:55:26.732Z,6.66
2023-02-02T04:57:53.270Z,6.69
2023-02-02T05:00:20.070Z,6.70
2023-02-02T05:02:46.613Z,6.70
2023-02-02T05:05:14.367Z,6.73
2023-02-02T05:07:41.352Z,6.72
2023-02-02T05:10:09.844Z,6.73
2023-02-02T05:12:36.561Z,6.74
2023-02-02T05:15:12.003Z,6.75
2023-02-02T05:17:38.546Z,6.77
2023-02-02T05:20:13.885Z,6.83
2023-02-02T05:22:40.772Z,6.89
2023-02-02T05:25:15.543Z,6.93
2023-02-02T05:27:46.246Z,6.95
2023-02-02T05:30:14.283Z,6.94
2023-02-02T05:32:40.694Z,6.93
2023-02-02T05:35:07.982Z,6.91
2023-02-02T05:37:34.417Z,6.89
2023-02-02T05:40:00.766Z,6.88
2023-02-02T05:42:27.555Z,6.89
2023-02-02T05:44:54.039Z,6.86
2023-02-02T05:47:21.752Z,6.86
2023-02-02T05:49:49.491Z,6.86
2023-02-02T05:52:22.206Z,6.84
2023-02-02T05:54:48.757Z,6.85
2023-02-02T05:57:15.271Z,6.85
2023-02-02T05:59:41.908Z,6.83
2023-02-02T06:02:08.353Z,6.81
2023-02-02T06:04:34.730Z,6.80
2023-02-02T06:07:01.301Z,6.81
2023-02-02T06:09:27.688Z,6.78
2023-02-02T06:11:54.177Z,6.77
2023-02-02T06:14:23.505Z,6.76
2023-02-02T06:16:49.960Z,6.76
2023-02-02T06:19:16.408Z,6.74
2023-02-02T06:21:42.788Z,6.75
2023-02-02T06:24:09.488Z,6.76
2023-02-02T06:26:36.662Z,6.77
2023-02-02T06:29:03.612Z,6.80
2023-02-02T06:31:30.248Z,6.83
2023-02-02T06:33:58.439Z,6.86
2023-02-02T06:36:26.682Z,6.88
2023-02-02T06:38:54.837Z,6.88
2023-02-02T06:41:22.154Z,6.85
2023-02-02T06:43:49.671Z,6.83
2023-02-02T06:46:16.979Z,6.84
2023-02-02T06:48:43.698Z,6.83
2023-02-02T06:51:10.080Z,6.80
2023-02-02T06:53:36.694Z,6.77
2023-02-02T06:56:07.116Z,6.77
2023-02-02T06:58:34.484Z,6.77
2023-02-02T07:01:08.980Z,6.75
2023-02-02T07:03:36.139Z,6.74
2023-02-02T07:06:19.705Z,6.74
2023-02-02T07:09:01.721Z,6.72
2023-02-02T07:11:31.157Z,6.72
2023-02-02T07:13:57.892Z,6.72
2023-02-02T07:16:24.374Z,6.72
2023-02-02T07:18:50.980Z,6.70
2023-02-02T07:21:20.072Z,6.70
2023-02-02T07:23:46.929Z,6.70
2023-02-02T07:26:14.417Z,6.70
2023-02-02T07:28:41.078Z,6.69
2023-02-02T07:31:15.462Z,6.70
2023-02-02T07:33:43.200Z,6.74
2023-02-02T07:36:11.407Z,6.78
2023-02-02T07:38:38.222Z,6.82
2023-02-02T07:41:05.128Z,6.85
2023-02-02T07:43:31.625Z,6.86
2023-02-02T07:46:04.410Z,6.89
2023-02-02T07:48:31.047Z,6.88
2023-02-02T07:51:05.879Z,6.89
2023-02-02T07:53:33.283Z,6.87
2023-02-02T07:56:11.517Z,6.86
2023-02-02T07:58:38.307Z,6.86
2023-02-02T08:01:07.019Z,6.87
2023-02-02T08:03:34.703Z,6.86
2023-02-02T08:06:01.699Z,6.85
2023-02-02T08:08:28.411Z,6.85
2023-02-02T08:10:54.945Z,6.87
2023-02-02T08:13:21.755Z,6.90
2023-02-02T08:15:48.380Z,6.92
2023-02-02T08:18:14.814Z,6.95
2023-02-02T08:20:41.364Z,6.97
2023-02-02T08:23:13.415Z,6.99
2023-02-02T08:25:40.209Z,6.99
2023-02-02T08:28:06.668Z,6.97
2023-02-02T08:30:35.245Z,6.97
2023-02-02T08:33:01.692Z,6.99
2023-02-02T08:35:28.139Z,7.00
2023-02-02T08:37:54.588Z,7.02
2023-02-02T08:40:21.106Z,7.07
2023-02-02T08:42:51.134Z,7.13
2023-02-02T08:46:02.921Z,7.21
2023-02-02T08:48:17.089Z,7.30
2023-02-02T08:50:43.567Z,7.33
2023-02-02T08:53:10.099Z,7.36
2023-02-02T08:55:36.511Z,7.37
2023-02-02T08:58:02.926Z,7.38
2023-02-02T09:00:29.350Z,7.44
2023-02-02T09:02:55.759Z,7.56
2023-02-02T09:05:22.354Z,7.63
2023-02-02T09:07:49.377Z,7.74
2023-02-02T09:10:16.192Z,7.79
2023-02-02T09:12:42.632Z,7.86
2023-02-02T09:15:09.534Z,7.91
2023-02-02T09:17:36.467Z,7.98
2023-02-02T09:20:03.274Z,8.06
2023-02-02T09:22:29.751Z,8.05
2023-02-02T09:24:56.229Z,8.08
2023-02-02T09:27:22.629Z,8.15
2023-02-02T09:29:49.164Z,8.21
2023-02-02T09:32:16.008Z,8.24
2023-02-02T09:34:42.365Z,8.33
2023-02-02T09:37:09.046Z,8.37
2023-02-02T09:39:35.648Z,8.30
2023-02-02T09:42:13.777Z,8.24
2023-02-02T09:45:03.513Z,8.20
2023-02-02T09:47:41.797Z,8.24
2023-02-02T09:50:21.081Z,8.23
2023-02-02T09:53:00.975Z,8.24
2023-02-02T09:55:43.052Z,8.25
2023-02-02T09:58:22.167Z,8.22
2023-02-02T10:01:03.184Z,8.16
2023-02-02T10:03:58.830Z,8.12
2023-02-02T10:06:38.747Z,8.19
2023-02-02T10:09:08.288Z,8.29
2023-02-02T10:11:44.885Z,8.27
2023-02-02T10:14:46.325Z,8.25
2023-02-02T10:17:42.112Z,8.24
2023-02-02T10:20:38.580Z,8.16
2023-02-02T10:23:17.175Z,8.14
2023-02-02T10:25:52.548Z,8.20
2023-02-02T10:28:20.485Z,8.26
2023-02-02T10:30:55.731Z,8.30
2023-02-02T10:33:34.314Z,8.36
2023-02-02T10:36:11.150Z,8.36
2023-02-02T10:38:47.362Z,8.38
2023-02-02T10:41:32.169Z,8.40
2023-02-02T10:44:37.153Z,8.41
2023-02-02T10:47:09.664Z,8.42
2023-02-02T10:49:40.737Z,8.49
2023-02-02T10:52:16.958Z,8.49
2023-02-02T10:55:03.965Z,8.45
2023-02-02T10:57:35.443Z,8.45
2023-02-02T11:00:11.258Z,8.43
2023-02-02T11:02:37.912Z,8.46
2023-02-02T11:05:23.207Z,8.46
2023-02-02T11:07:52.145Z,8.46
2023-02-02T11:10:18.691Z,8.47
2023-02-02T11:12:53.125Z,8.43
2023-02-02T11:15:30.565Z,8.45
2023-02-02T11:18:14.727Z,8.43
2023-02-02T11:20:41.676Z,8.44
2023-02-02T11:23:18.232Z,8.49
2023-02-02T11:25:44.789Z,8.51
2023-02-02T11:28:20.570Z,8.57
2023-02-02T11:30:50.646Z,8.55
2023-02-02T11:33:28.391Z,8.57
2023-02-02T11:36:01.667Z,8.56
2023-02-02T11:38:28.768Z,8.56
2023-02-02T11:41:04.047Z,8.54
2023-02-02T11:43:41.418Z,8.58
2023-02-02T11:46:24.900Z,8.55
2023-02-02T11:48:59.466Z,8.54
2023-02-02T11:51:28.151Z,8.60
2023-02-02T11:54:25.826Z,8.63
2023-02-02T11:56:55.434Z,8.61
2023-02-02T11:59:36.687Z,8.56
2023-02-02T12:02:29.311Z,8.57
2023-02-02T12:05:14.748Z,8.55
2023-02-02T12:07:43.325Z,8.55
2023-02-02T12:10:19.471Z,8.59
2023-02-02T12:12:58.901Z,8.60
2023-02-02T12:15:54.491Z,8.56
2023-02-02T12:18:47.313Z,8.50
2023-02-02T12:21:38.147Z,8.43
2023-02-02T12:24:24.645Z,8.39
2023-02-02T12:27:00.321Z,8.38
2023-02-02T12:29:43.985Z,8.36
2023-02-02T12:32:29.979Z,8.35
2023-02-02T12:35:30.800Z,8.32
2023-02-02T12:38:42.874Z,8.28
2023-02-02T12:41:30.465Z,8.26
2023-02-02T12:44:32.402Z,8.23
2023-02-02T12:47:05.030Z,8.22
2023-02-02T12:49:53.038Z,8.20
2023-02-02T12:52:57.173Z,8.22
2023-02-02T12:55:42.364Z,8.23
2023-02-02T12:58:16.757Z,8.20
2023-02-02T13:00:58.789Z,8.17
2023-02-02T13:03:45.273Z,8.16
2023-02-02T13:06:30.707Z,8.16
2023-02-02T13:09:09.890Z,8.16
2023-02-02T13:11:45.772Z,8.16
2023-02-02T13:14:24.973Z,8.17
2023-02-02T13:16:56.009Z,8.17
2023-02-02T13:19:35.323Z,8.15
2023-02-02T13:22:07.264Z,8.15
2023-02-02T13:24:38.660Z,8.15
2023-02-02T13:27:07.687Z,8.12
2023-02-02T13:29:55.643Z,8.10
2023-02-02T13:32:27.573Z,8.05
2023-02-02T13:35:01.130Z,8.02
2023-02-02T13:37:39.665Z,7.99
2023-02-02T13:40:26.221Z,7.98
2023-02-02T13:43:23.679Z,7.99
2023-02-02T13:46:25.704Z,7.92
2023-02-02T13:49:10.114Z,7.88
2023-02-02T13:51:50.790Z,7.90
2023-02-02T13:54:52.844Z,7.92
2023-02-02T13:57:37.090Z,7.95
2023-02-02T14:00:18.761Z,7.94
2023-02-02T14:02:49.386Z,7.95
2023-02-02T14:05:27.407Z,7.98
2023-02-02T14:08:03.062Z,7.98
2023-02-02T14:10:44.388Z,7.98
2023-02-02T14:13:32.570Z,7.99
2023-02-02T14:16:02.492Z,8.00
2023-02-02T14:18:59.780Z,8.02
2023-02-02T14:21:32.505Z,8.04
2023-02-02T14:24:38.988Z,8.03
2023-02-02T14:27:08.117Z,8.02
2023-02-02T14:29:39.605Z,7.98
2023-02-02T14:32:06.812Z,7.98
2023-02-02T14:34:41.700Z,7.96
2023-02-02T14:37:26.671Z,7.91
2023-02-02T14:40:01.856Z,7.90
2023-02-02T14:43:08.436Z,7.90
2023-02-02T14:45:45.930Z,7.87
2023-02-02T14:48:18.216Z,7.85
2023-02-02T14:50:50.729Z,7.84
2023-02-02T14:53:25.422Z,7.82
2023-02-02T14:55:55.797Z,7.80
2023-02-02T14:58:26.158Z,7.77
2023-02-02T15:01:25.143Z,7.74
2023-02-02T15:03:57.655Z,7.70
2023-02-02T15:06:28.461Z,7.69
2023-02-02T15:09:19.831Z,7.68
2023-02-02T15:12:05.197Z,7.68
2023-02-02T15:14:33.912Z,7.69
2023-02-02T15:17:26.859Z,7.69
2023-02-02T15:20:05.248Z,7.69
2023-02-02T15:22:53.065Z,7.74
2023-02-02T15:25:32.076Z,7.74
2023-02-02T15:28:08.326Z,7.75
2023-02-02T15:30:37.926Z,7.76
2023-02-02T15:33:26.748Z,7.75
2023-02-02T15:35:55.420Z,7.75
2023-02-02T15:38:30.632Z,7.72
2023-02-02T15:40:57.331Z,7.71
2023-02-02T15:43:27.543Z,7.72
2023-02-02T15:46:01.186Z,7.71
2023-02-02T15:48:32.012Z,7.70
2023-02-02T15:51:05.309Z,7.71
2023-02-02T15:53:43.599Z,7.69
2023-02-02T15:56:21.042Z,7.70
2023-02-02T15:58:50.066Z,7.68
2023-02-02T16:01:22.127Z,7.67
2023-02-02T16:04:13.196Z,7.65
2023-02-02T16:06:40.327Z,7.64
2023-02-02T16:09:07.452Z,7.65
2023-02-02T16:11:40.947Z,7.64
2023-02-02T16:14:17.728Z,7.63
2023-02-02T16:16:47.078Z,7.64
2023-02-02T16:19:23.988Z,7.61
2023-02-02T16:21:54.824Z,7.60
2023-02-02T16:24:31.710Z,7.62
2023-02-02T16:27:00.823Z,7.62
2023-02-02T16:29:28.840Z,7.62
2023-02-02T16:31:56.340Z,7.66
2023-02-02T16:34:55.750Z,7.65
2023-02-02T16:37:25.416Z,7.64
2023-02-02T16:39:51.939Z,7.62
2023-02-02T16:42:29.802Z,7.60
2023-02-02T16:44:57.624Z,7.58
2023-02-02T16:47:43.991Z,7.56
2023-02-02T16:50:10.719Z,7.54
2023-02-02T16:52:56.951Z,7.50
2023-02-02T16:55:24.142Z,7.49
2023-02-02T16:57:51.725Z,7.46
2023-02-02T17:00:25.266Z,7.45
2023-02-02T17:02:58.401Z,7.43
2023-02-02T17:05:25.175Z,7.44
2023-02-02T17:07:58.354Z,7.41
2023-02-02T17:10:36.922Z,7.41
2023-02-02T17:13:36.367Z,7.38
2023-02-02T17:16:03.032Z,7.37
2023-02-02T17:18:29.506Z,7.36
2023-02-02T17:20:58.693Z,7.36
2023-02-02T17:23:28.697Z,7.36
2023-02-02T17:25:55.654Z,7.37
2023-02-02T17:28:25.175Z,7.37
2023-02-02T17:31:02.958Z,7.38
2023-02-02T17:33:35.206Z,7.40
2023-02-02T17:36:02.537Z,7.41
2023-02-02T17:38:29.210Z,7.41
2023-02-02T17:41:01.104Z,7.44
2023-02-02T17:43:29.023Z,7.44
2023-02-02T17:45:55.775Z,7.45
2023-02-02T17:48:22.385Z,7.43
2023-02-02T17:50:48.948Z,7.43
2023-02-02T17:53:18.421Z,7.42
2023-02-02T17:55:45.976Z,7.42
2023-02-02T17:58:17.271Z,7.42
2023-02-02T18:00:46.182Z,7.42
2023-02-02T18:03:22.059Z,7.41
2023-02-02T18:05:48.968Z,7.41
2023-02-02T18:08:15.789Z,7.39
2023-02-02T18:10:43.258Z,7.40
2023-02-02T18:13:16.307Z,7.40
2023-02-02T18:15:43.301Z,7.39
2023-02-02T18:18:09.783Z,7.39
2023-02-02T18:20:36.376Z,7.37
2023-02-02T18:23:02.973Z,7.39
2023-02-02T18:25:29.516Z,7.39
2023-02-02T18:27:57.537Z,7.39
2023-02-02T18:30:25.614Z,7.39
2023-02-02T18:32:52.268Z,7.40
2023-02-02T18:35:18.923Z,7.41
2023-02-02T18:37:45.484Z,7.42
2023-02-02T18:40:12.730Z,7.45
2023-02-02T18:42:39.108Z,7.47
2023-02-02T18:45:06.427Z,7.48
2023-02-02T18:47:32.962Z,7.48
2023-02-02T18:49:59.391Z,7.48
2023-02-02T18:52:25.855Z,7.50
2023-02-02T18:54:52.280Z,7.48
2023-02-02T18:57:18.692Z,7.47
2023-02-02T18:59:45.349Z,7.46
2023-02-02T19:02:16.751Z,7.44
2023-02-02T19:05:03.749Z,7.44
2023-02-02T19:08:03.587Z,7.43
2023-02-02T19:10:30.144Z,7.40
2023-02-02T19:13:05.406Z,7.39
2023-02-02T19:15:36.460Z,7.36
2023-02-02T19:18:03.026Z,7.34
2023-02-02T19:20:30.795Z,7.30
2023-02-02T19:23:07.268Z,7.21
2023-02-02T19:25:33.639Z,7.15
2023-02-02T19:28:15.069Z,7.09
2023-02-02T19:30:45.158Z,7.07
2023-02-02T19:33:13.280Z,7.03
2023-02-02T19:35:39.991Z,7.02
2023-02-02T19:38:12.045Z,7.01
2023-02-02T19:40:39.857Z,7.00
2023-02-02T19:43:12.351Z,7.01
2023-02-02T19:45:39.934Z,7.00
2023-02-02T19:48:35.125Z,7.00
2023-02-02T19:51:39.472Z,6.99
2023-02-02T19:54:21.919Z,6.99
2023-02-02T19:56:49.953Z,6.99
2023-02-02T19:59:19.500Z,6.98
2023-02-02T20:01:47.806Z,6.96
2023-02-02T20:04:20.545Z,6.96
2023-02-02T20:06:58.586Z,6.95
2023-02-02T20:09:33.382Z,6.93
2023-02-02T20:12:00.463Z,6.92
2023-02-02T20:14:30.063Z,6.91
2023-02-02T20:17:04.960Z,6.93
2023-02-02T20:19:40.304Z,6.93
2023-02-02T20:22:37.800Z,6.96
2023-02-02T20:25:08.011Z,6.96
2023-02-02T20:27:34.599Z,6.97
2023-02-02T20:30:18.551Z,6.99
2023-02-02T20:32:45.589Z,6.99
2023-02-02T20:35:33.574Z,7.01
2023-02-02T20:38:00.074Z,7.03
2023-02-02T20:40:29.281Z,7.03
2023-02-02T20:42:58.212Z,7.05
2023-02-02T20:45:25.644Z,7.05
2023-02-02T20:47:52.473Z,7.06
2023-02-02T20:50:21.945Z,7.12
2023-02-02T20:52:51.129Z,7.19
2023-02-02T20:55:18.211Z,7.20
2023-02-02T20:57:44.636Z,7.26
2023-02-02T21:00:14.524Z,7.31
2023-02-02T21:02:40.932Z,7.35
2023-02-02T21:05:07.671Z,7.33
2023-02-02T21:07:34.277Z,7.36
2023-02-02T21:10:00.745Z,7.39
2023-02-02T21:12:27.217Z,7.40
2023-02-02T21:14:54.163Z,7.44
2023-02-02T21:17:20.900Z,7.45
2023-02-02T21:19:47.685Z,7.46
2023-02-02T21:22:14.394Z,7.48
2023-02-02T21:24:41.378Z,7.52
2023-02-02T21:27:08.937Z,7.53
2023-02-02T21:29:35.618Z,7.54
2023-02-02T21:32:03.369Z,7.54
2023-02-02T21:34:31.065Z,7.56
2023-02-02T21:36:58.199Z,7.57
2023-02-02T21:39:29.755Z,7.58
2023-02-02T21:42:08.451Z,7.59
2023-02-02T21:44:40.915Z,7.63
2023-02-02T21:47:28.087Z,7.63
2023-02-02T21:49:57.068Z,7.62
2023-02-02T21:52:29.631Z,7.60
2023-02-02T21:54:56.687Z,7.66
2023-02-02T21:57:35.784Z,7.69
2023-02-02T22:00:20.500Z,7.72
2023-02-02T22:02:48.745Z,7.74
2023-02-02T22:05:33.156Z,7.77
2023-02-02T22:08:02.583Z,7.79
2023-02-02T22:10:40.168Z,7.79
2023-02-02T22:13:25.029Z,7.80
2023-02-02T22:15:53.370Z,7.84
2023-02-02T22:18:24.969Z,7.85
2023-02-02T22:20:54.411Z,7.85
2023-02-02T22:23:23.010Z,7.84
2023-02-02T22:25:53.231Z,7.84
2023-02-02T22:28:39.899Z,7.86
2023-02-02T22:31:06.483Z,7.86
2023-02-02T22:33:32.909Z,7.88
2023-02-02T22:35:59.304Z,7.90
2023-02-02T22:38:25.819Z,7.90
2023-02-02T22:40:52.985Z,7.91
2023-02-02T22:43:20.848Z,7.93
2023-02-02T22:45:48.336Z,7.91
2023-02-02T22:48:15.466Z,7.90
2023-02-02T22:50:42.561Z,7.91
2023-02-02T22:53:09.327Z,7.93
2023-02-02T22:55:35.833Z,7.93
2023-02-02T22:58:02.369Z,7.94
2023-02-02T23:00:32.909Z,7.93
2023-02-02T23:03:00.050Z,7.94
2023-02-02T23:05:28.082Z,7.96
2023-02-02T23:07:55.228Z,7.98
2023-02-02T23:10:24.558Z,7.98
2023-02-02T23:12:54.028Z,7.97
2023-02-02T23:15:20.967Z,7.97
2023-02-02T23:17:47.774Z,7.95
2023-02-02T23:20:15.777Z,7.91
2023-02-02T23:22:42.309Z,7.89
2023-02-02T23:25:09.297Z,7.87
2023-02-02T23:27:36.301Z,7.87
2023-02-02T23:30:03.467Z,7.88
2023-02-02T23:32:29.873Z,7.87
2023-02-02T23:34:56.308Z,7.89
2023-02-02T23:37:22.880Z,7.90
2023-02-02T23:39:49.267Z,7.88
2023-02-02T23:42:15.983Z,7.88
2023-02-02T23:44:42.362Z,7.89
2023-02-02T23:47:09.811Z,7.89
2023-02-02T23:49:36.979Z,7.88
2023-02-02T23:52:03.764Z,7.89
2023-02-02T23:54:30.847Z,7.91
2023-02-02T23:56:57.861Z,7.90
2023-02-02T23:59:24.430Z,7.91
